createdAt,value
2018-08-12T00:00:19.776Z,98811.00
2018-08-12T00:02:48.543Z,98809.00
2018-08-12T00:05:17.183Z,98808.00
2018-08-12T00:07:46.088Z,98808.00
2018-08-12T00:10:14.928Z,98805.00
2018-08-12T00:12:43.652Z,98803.00
2018-08-12T00:15:16.070Z,98804.00
2018-08-12T00:17:44.789Z,98806.00
2018-08-12T00:20:16.923Z,98802.00
2018-08-12T00:22:46.522Z,98806.00
2018-08-12T00:25:16.640Z,98807.00
2018-08-12T00:27:45.408Z,98806.00
2018-08-12T00:30:16.128Z,98803.00
2018-08-12T00:32:44.900Z,98807.00
2018-08-12T00:35:14.866Z,98804.00
2018-08-12T00:37:43.548Z,98805.00
2018-08-12T00:40:14.018Z,98807.00
2018-08-12T00:42:43.125Z,98806.00
2018-08-12T00:45:15.839Z,98804.00
2018-08-12T00:47:45.250Z,98808.00
2018-08-12T00:50:14.867Z,98805.00
2018-08-12T00:52:43.672Z,98804.00
2018-08-12T00:55:14.605Z,98803.00
2018-08-12T00:57:44.240Z,98806.00
2018-08-12T01:00:20.578Z,98813.00
2018-08-12T01:02:49.319Z,98806.00
2018-08-12T01:05:19.055Z,98804.00
2018-08-12T01:07:48.779Z,98811.00
2018-08-12T01:10:18.205Z,98801.00
2018-08-12T01:12:46.980Z,98809.00
2018-08-12T01:15:21.507Z,98806.00
2018-08-12T01:17:50.339Z,98810.00
2018-08-12T01:20:25.120Z,98813.00
2018-08-12T01:22:53.877Z,98807.00
2018-08-12T01:25:22.907Z,98807.00
2018-08-12T01:27:51.650Z,98804.00
2018-08-12T01:30:21.480Z,98808.00
2018-08-12T01:32:50.240Z,98807.00
2018-08-12T01:35:19.070Z,98803.00
2018-08-12T01:37:48.443Z,98799.00
2018-08-12T01:40:17.945Z,98803.00
2018-08-12T01:42:46.735Z,98803.00
2018-08-12T01:45:17.670Z,98804.00
2018-08-12T01:47:46.294Z,98802.00
2018-08-12T01:50:16.603Z,98799.00
2018-08-12T01:52:45.345Z,98804.00
2018-08-12T01:55:14.142Z,98798.00
2018-08-12T01:57:42.840Z,98799.00
2018-08-12T02:00:17.388Z,98796.00
2018-08-12T02:02:46.477Z,98791.00
2018-08-12T02:05:15.742Z,98786.00
2018-08-12T02:07:44.580Z,98782.00
2018-08-12T02:10:13.322Z,98784.00
2018-08-12T02:12:42.013Z,98785.00
2018-08-12T02:15:11.443Z,98795.00
2018-08-12T02:17:40.640Z,98790.00
2018-08-12T02:20:10.350Z,98789.00
2018-08-12T02:22:39.560Z,98795.00
2018-08-12T02:25:08.948Z,98793.00
2018-08-12T02:27:37.667Z,98791.00
2018-08-12T02:30:08.796Z,98798.00
2018-08-12T02:32:37.558Z,98794.00
2018-08-12T02:35:06.512Z,98790.00
2018-08-12T02:37:35.146Z,98790.00
2018-08-12T02:40:05.468Z,98791.00
2018-08-12T02:42:34.244Z,98785.00
2018-08-12T02:45:03.531Z,98782.00
2018-08-12T02:47:32.198Z,98787.00
2018-08-12T02:50:00.821Z,98782.00
2018-08-12T02:52:29.452Z,98786.00
2018-08-12T02:54:58.086Z,98779.00
2018-08-12T02:57:26.732Z,98782.00
2018-08-12T02:59:55.402Z,98785.00
2018-08-12T03:02:24.088Z,98781.00
2018-08-12T03:04:52.709Z,98780.00
2018-08-12T03:07:21.387Z,98775.00
2018-08-12T03:09:49.987Z,98770.00
2018-08-12T03:12:18.620Z,98772.00
2018-08-12T03:14:47.200Z,98772.00
2018-08-12T03:17:15.918Z,98771.00
2018-08-12T03:19:44.533Z,98771.00
2018-08-12T03:22:13.175Z,98771.00
2018-08-12T03:24:41.830Z,98772.00
2018-08-12T03:27:10.478Z,98771.00
2018-08-12T03:29:39.191Z,98773.00
2018-08-12T03:32:07.876Z,98774.00
2018-08-12T03:34:36.536Z,98774.00
2018-08-12T03:37:05.510Z,98773.00
2018-08-12T03:39:34.173Z,98774.00
2018-08-12T03:42:02.818Z,98775.00
2018-08-12T03:44:31.478Z,98776.00
2018-08-12T03:47:00.218Z,98778.00
2018-08-12T03:49:28.888Z,98777.00
2018-08-12T03:51:57.538Z,98779.00
2018-08-12T03:54:26.300Z,98779.00
2018-08-12T03:56:54.975Z,98777.00
2018-08-12T03:59:23.685Z,98774.00
2018-08-12T04:01:52.338Z,98777.00
2018-08-12T04:04:21.098Z,98774.00
2018-08-12T04:06:49.793Z,98778.00
2018-08-12T04:09:18.488Z,98779.00
2018-08-12T04:11:47.223Z,98781.00
2018-08-12T04:14:15.961Z,98783.00
2018-08-12T04:16:49.100Z,98780.00
2018-08-12T04:19:17.839Z,98779.00
2018-08-12T04:21:46.480Z,98777.00
2018-08-12T04:24:15.158Z,98776.00
2018-08-12T04:26:43.831Z,98780.00
2018-08-12T04:29:12.405Z,98783.00
2018-08-12T04:31:41.021Z,98779.00
2018-08-12T04:34:09.738Z,98789.00
2018-08-12T04:36:38.468Z,98790.00
2018-08-12T04:39:10.806Z,98795.00
2018-08-12T04:41:40.038Z,98788.00
2018-08-12T04:44:08.708Z,98792.00
2018-08-12T04:46:37.936Z,98798.00
2018-08-12T04:49:07.723Z,98796.00
2018-08-12T04:51:36.495Z,98798.00
2018-08-12T04:54:05.712Z,98801.00
2018-08-12T04:56:34.438Z,98798.00
2018-08-12T04:59:03.238Z,98804.00
2018-08-12T05:01:31.865Z,98804.00
2018-08-12T05:04:00.562Z,98807.00
2018-08-12T05:06:29.255Z,98810.00
2018-08-12T05:08:57.902Z,98810.00
2018-08-12T05:11:26.766Z,98813.00
2018-08-12T05:13:55.502Z,98811.00
2018-08-12T05:16:24.155Z,98805.00
2018-08-12T05:18:52.810Z,98810.00
2018-08-12T05:21:21.515Z,98809.00
2018-08-12T05:23:50.166Z,98805.00
2018-08-12T05:26:18.857Z,98812.00
2018-08-12T05:28:47.510Z,98816.00
2018-08-12T05:31:16.230Z,98813.00
2018-08-12T05:33:44.883Z,98813.00
2018-08-12T05:36:13.560Z,98815.00
2018-08-12T05:38:42.130Z,98817.00
2018-08-12T05:41:10.718Z,98813.00
2018-08-12T05:43:39.393Z,98815.00
2018-08-12T05:46:08.187Z,98818.00
2018-08-12T05:48:36.860Z,98814.00
2018-08-12T05:51:05.739Z,98811.00
2018-08-12T05:53:34.384Z,98809.00
2018-08-12T05:56:03.118Z,98812.00
2018-08-12T05:58:31.825Z,98811.00
2018-08-12T06:01:00.488Z,98810.00
2018-08-12T06:03:29.230Z,98808.00
2018-08-12T06:05:57.983Z,98805.00
2018-08-12T06:08:26.708Z,98802.00
2018-08-12T06:10:55.387Z,98804.00
2018-08-12T06:13:24.090Z,98810.00
2018-08-12T06:15:52.747Z,98806.00
2018-08-12T06:18:21.491Z,98805.00
2018-08-12T06:20:50.214Z,98802.00
2018-08-12T06:23:19.704Z,98801.00
2018-08-12T06:25:48.462Z,98800.00
2018-08-12T06:28:17.137Z,98801.00
2018-08-12T06:30:45.918Z,98803.00
2018-08-12T06:33:14.980Z,98805.00
2018-08-12T06:35:43.759Z,98808.00
2018-08-12T06:38:12.436Z,98808.00
2018-08-12T06:40:41.286Z,98804.00
2018-08-12T06:43:09.976Z,98809.00
2018-08-12T06:45:38.732Z,98806.00
2018-08-12T06:48:07.530Z,98811.00
2018-08-12T06:50:36.223Z,98807.00
2018-08-12T06:53:04.963Z,98809.00
2018-08-12T06:55:33.664Z,98808.00
2018-08-12T06:58:02.428Z,98804.00
2018-08-12T07:00:31.110Z,98803.00
2018-08-12T07:02:59.741Z,98808.00
2018-08-12T07:05:28.528Z,98809.00
2018-08-12T07:07:57.253Z,98805.00
2018-08-12T07:10:25.968Z,98801.00
2018-08-12T07:12:54.713Z,98803.00
2018-08-12T07:15:23.488Z,98804.00
2018-08-12T07:17:52.259Z,98806.00
2018-08-12T07:20:20.987Z,98799.00
2018-08-12T07:22:49.819Z,98805.00
2018-08-12T07:25:18.536Z,98804.00
2018-08-12T07:27:47.293Z,98801.00
2018-08-12T07:30:16.663Z,98805.00
2018-08-12T07:32:45.380Z,98797.00
2018-08-12T07:35:14.086Z,98803.00
2018-08-12T07:37:42.923Z,98803.00
2018-08-12T07:40:16.530Z,98803.00
2018-08-12T07:42:45.848Z,98807.00
2018-08-12T07:45:14.688Z,98810.00
2018-08-12T07:47:43.823Z,98814.00
2018-08-12T07:50:12.689Z,98816.00
2018-08-12T07:52:42.836Z,98819.00
2018-08-12T07:55:12.609Z,98818.00
2018-08-12T07:57:42.391Z,98815.00
2018-08-12T08:00:17.442Z,98818.00
2018-08-12T08:02:46.446Z,98821.00
2018-08-12T08:05:15.463Z,98816.00
2018-08-12T08:07:45.449Z,98813.00
2018-08-12T08:10:15.860Z,98815.00
2018-08-12T08:12:44.878Z,98814.00
2018-08-12T08:15:18.072Z,98810.00
2018-08-12T08:17:47.099Z,98816.00
2018-08-12T08:20:16.249Z,98818.00
2018-08-12T08:22:45.311Z,98817.00
2018-08-12T08:25:14.143Z,98811.00
2018-08-12T08:27:42.930Z,98816.00
2018-08-12T08:30:15.185Z,98811.00
2018-08-12T08:32:44.133Z,98805.00
2018-08-12T08:35:13.639Z,98804.00
2018-08-12T08:37:42.940Z,98811.00
2018-08-12T08:40:13.946Z,98808.00
2018-08-12T08:42:42.698Z,98811.00
2018-08-12T08:45:18.111Z,98812.00
2018-08-12T08:47:48.057Z,98811.00
2018-08-12T08:50:18.339Z,98812.00
2018-08-12T08:52:47.191Z,98809.00
2018-08-12T08:55:17.083Z,98810.00
2018-08-12T08:57:46.394Z,98811.00
2018-08-12T09:00:17.410Z,98806.00
2018-08-12T09:02:47.547Z,98811.00
2018-08-12T09:05:16.931Z,98815.00
2018-08-12T09:07:45.803Z,98816.00
2018-08-12T09:10:15.818Z,98809.00
2018-08-12T09:12:44.658Z,98807.00
2018-08-12T09:15:15.705Z,98803.00
2018-08-12T09:17:45.055Z,98803.00
2018-08-12T09:20:15.600Z,98796.00
2018-08-12T09:22:44.508Z,98799.00
2018-08-12T09:25:14.536Z,98799.00
2018-08-12T09:27:43.330Z,98794.00
2018-08-12T09:30:16.587Z,98797.00
2018-08-12T09:32:46.143Z,98794.00
2018-08-12T09:35:14.972Z,98788.00
2018-08-12T09:37:43.841Z,98792.00
2018-08-12T09:40:14.950Z,98786.00
2018-08-12T09:42:44.510Z,98786.00
2018-08-12T09:45:15.913Z,98780.00
2018-08-12T09:47:44.930Z,98781.00
2018-08-12T09:50:17.733Z,98787.00
2018-08-12T09:52:47.367Z,98789.00
2018-08-12T09:55:16.748Z,98788.00
2018-08-12T09:57:45.531Z,98786.00
2018-08-12T10:00:21.814Z,98788.00
2018-08-12T10:02:52.413Z,98789.00
2018-08-12T10:05:21.455Z,98787.00
2018-08-12T10:07:50.360Z,98783.00
2018-08-12T10:10:19.608Z,98778.00
2018-08-12T10:12:48.431Z,98780.00
2018-08-12T10:15:17.710Z,98780.00
2018-08-12T10:17:52.422Z,98778.00
2018-08-12T10:20:21.475Z,98775.00
2018-08-12T10:22:50.763Z,98772.00
2018-08-12T10:25:19.681Z,98771.00
2018-08-12T10:27:48.438Z,98770.00
2018-08-12T10:30:17.151Z,98765.00
2018-08-12T10:32:46.054Z,98764.00
2018-08-12T10:35:16.280Z,98761.00
2018-08-12T10:37:45.694Z,98757.00
2018-08-12T10:40:18.821Z,98748.00
2018-08-12T10:42:48.438Z,98751.00
2018-08-12T10:45:17.841Z,98743.00
2018-08-12T10:47:47.681Z,98745.00
2018-08-12T10:50:18.293Z,98744.00
2018-08-12T10:52:47.781Z,98744.00
2018-08-12T10:55:19.196Z,98742.00
2018-08-12T10:57:48.414Z,98739.00
2018-08-12T11:00:24.954Z,98731.00
2018-08-12T11:02:54.262Z,98729.00
2018-08-12T11:05:23.170Z,98731.00
2018-08-12T11:07:53.648Z,98727.00
2018-08-12T11:10:22.748Z,98728.00
2018-08-12T11:12:51.492Z,98731.00
2018-08-12T11:15:20.329Z,98722.00
2018-08-12T11:17:49.161Z,98721.00
2018-08-12T11:20:18.107Z,98718.00
2018-08-12T11:22:46.816Z,98721.00
2018-08-12T11:25:15.573Z,98720.00
2018-08-12T11:27:44.379Z,98713.00
2018-08-12T11:30:16.203Z,98717.00
2018-08-12T11:32:45.199Z,98716.00
2018-08-12T11:35:16.243Z,98707.00
2018-08-12T11:37:45.333Z,98706.00
2018-08-12T11:40:15.076Z,98712.00
2018-08-12T11:42:43.933Z,98706.00
2018-08-12T11:45:16.376Z,98705.00
2018-08-12T11:47:46.394Z,98702.00
2018-08-12T11:50:16.251Z,98694.00
2018-08-12T11:52:45.474Z,98693.00
2018-08-12T11:55:17.320Z,98697.00
2018-08-12T11:57:46.180Z,98685.00
2018-08-12T12:00:18.493Z,98685.00
2018-08-12T12:02:48.683Z,98678.00
2018-08-12T12:05:17.601Z,98682.00
2018-08-12T12:07:46.343Z,98685.00
2018-08-12T12:10:18.791Z,98678.00
2018-08-12T12:12:48.976Z,98693.00
2018-08-12T12:15:17.860Z,98687.00
2018-08-12T12:17:47.978Z,98682.00
2018-08-12T12:20:17.517Z,98681.00
2018-08-12T12:22:46.806Z,98675.00
2018-08-12T12:25:16.931Z,98678.00
2018-08-12T12:27:45.723Z,98679.00
2018-08-12T12:30:16.631Z,98668.00
2018-08-12T12:32:46.717Z,98668.00
2018-08-12T12:35:16.523Z,98668.00
2018-08-12T12:37:45.508Z,98669.00
2018-08-12T12:40:16.368Z,98659.00
2018-08-12T12:42:45.771Z,98665.00
2018-08-12T12:45:15.151Z,98662.00
2018-08-12T12:47:45.233Z,98662.00
2018-08-12T12:50:20.786Z,98668.00
2018-08-12T12:52:51.276Z,98663.00
2018-08-12T12:55:21.204Z,98653.00
2018-08-12T12:57:50.128Z,98650.00
2018-08-12T13:00:20.152Z,98649.00
2018-08-12T13:02:49.594Z,98640.00
2018-08-12T13:05:19.637Z,98641.00
2018-08-12T13:07:49.078Z,98628.00
2018-08-12T13:10:18.950Z,98627.00
2018-08-12T13:12:47.890Z,98619.00
2018-08-12T13:15:17.604Z,98615.00
2018-08-12T13:17:46.854Z,98620.00
2018-08-12T13:20:17.472Z,98622.00
2018-08-12T13:22:48.387Z,98613.00
2018-08-12T13:25:19.484Z,98603.00
2018-08-12T13:27:48.380Z,98603.00
2018-08-12T13:30:18.129Z,98601.00
2018-08-12T13:32:47.688Z,98600.00
2018-08-12T13:35:16.639Z,98597.00
2018-08-12T13:37:45.416Z,98591.00
2018-08-12T13:40:15.947Z,98591.00
2018-08-12T13:42:45.379Z,98589.00
2018-08-12T13:45:14.971Z,98584.00
2018-08-12T13:47:45.055Z,98588.00
2018-08-12T13:50:22.363Z,98583.00
2018-08-12T13:52:51.741Z,98586.00
2018-08-12T13:55:21.362Z,98584.00
2018-08-12T13:57:51.046Z,98572.00
2018-08-12T14:00:21.437Z,98570.00
2018-08-12T14:02:51.031Z,98567.00
2018-08-12T14:05:20.250Z,98571.00
2018-08-12T14:07:49.652Z,98556.00
2018-08-12T14:10:18.644Z,98561.00
2018-08-12T14:12:47.504Z,98556.00
2018-08-12T14:15:17.785Z,98553.00
2018-08-12T14:17:47.752Z,98547.00
2018-08-12T14:20:18.158Z,98548.00
2018-08-12T14:22:46.979Z,98550.00
2018-08-12T14:25:16.244Z,98539.00
2018-08-12T14:27:46.262Z,98545.00
2018-08-12T14:30:17.620Z,98544.00
2018-08-12T14:32:47.211Z,98541.00
2018-08-12T14:35:15.989Z,98539.00
2018-08-12T14:37:44.920Z,98532.00
2018-08-12T14:40:14.313Z,98533.00
2018-08-12T14:42:43.323Z,98531.00
2018-08-12T14:45:14.989Z,98527.00
2018-08-12T14:47:44.226Z,98529.00
2018-08-12T14:50:17.696Z,98531.00
2018-08-12T14:52:46.758Z,98527.00
2018-08-12T14:55:17.814Z,98527.00
2018-08-12T14:57:46.829Z,98526.00
2018-08-12T15:00:19.572Z,98524.00
2018-08-12T15:02:49.674Z,98526.00
2018-08-12T15:05:19.061Z,98520.00
2018-08-12T15:07:48.092Z,98519.00
2018-08-12T15:10:17.036Z,98516.00
2018-08-12T15:12:45.770Z,98512.00
2018-08-12T15:15:16.160Z,98513.00
2018-08-12T15:17:45.853Z,98513.00
2018-08-12T15:20:15.719Z,98513.00
2018-08-12T15:22:44.775Z,98509.00
2018-08-12T15:25:21.471Z,98505.00
2018-08-12T15:27:50.622Z,98513.00
2018-08-12T15:30:19.513Z,98508.00
2018-08-12T15:32:48.389Z,98500.00
2018-08-12T15:35:17.261Z,98504.00
2018-08-12T15:37:46.183Z,98507.00
2018-08-12T15:40:15.733Z,98502.00
2018-08-12T15:42:44.769Z,98503.00
2018-08-12T15:45:15.203Z,98498.00
2018-08-12T15:47:45.086Z,98499.00
2018-08-12T15:50:14.963Z,98499.00
2018-08-12T15:52:44.814Z,98495.00
2018-08-12T15:55:13.815Z,98497.00
2018-08-12T15:57:43.273Z,98502.00
2018-08-12T16:00:16.610Z,98496.00
2018-08-12T16:02:45.591Z,98492.00
2018-08-12T16:05:14.768Z,98481.00
2018-08-12T16:07:44.624Z,98492.00
2018-08-12T16:10:18.889Z,98495.00
2018-08-12T16:12:49.659Z,98492.00
2018-08-12T16:15:18.637Z,98488.00
2018-08-12T16:17:47.838Z,98486.00
2018-08-12T16:20:17.205Z,98483.00
2018-08-12T16:22:46.040Z,98480.00
2018-08-12T16:25:17.590Z,98487.00
2018-08-12T16:27:46.848Z,98481.00
2018-08-12T16:30:17.217Z,98474.00
2018-08-12T16:32:46.555Z,98469.00
2018-08-12T16:35:16.376Z,98471.00
2018-08-12T16:37:46.425Z,98471.00
2018-08-12T16:40:19.147Z,98477.00
2018-08-12T16:42:48.562Z,98468.00
2018-08-12T16:45:18.073Z,98470.00
2018-08-12T16:47:47.780Z,98466.00
2018-08-12T16:50:16.509Z,98469.00
2018-08-12T16:52:46.320Z,98467.00
2018-08-12T16:55:17.109Z,98471.00
2018-08-12T16:57:46.736Z,98467.00
2018-08-12T17:00:19.512Z,98468.00
2018-08-12T17:02:48.658Z,98384.00
2018-08-12T17:05:20.105Z,98472.00
2018-08-12T17:07:49.976Z,98463.00
2018-08-12T17:10:20.434Z,98471.00
2018-08-12T17:12:49.210Z,98474.00
2018-08-12T17:15:19.596Z,98476.00
2018-08-12T17:17:48.922Z,98477.00
2018-08-12T17:20:19.323Z,98485.00
2018-08-12T17:22:49.413Z,98480.00
2018-08-12T17:25:18.258Z,98480.00
2018-08-12T17:27:47.177Z,98484.00
2018-08-12T17:30:17.138Z,98478.00
2018-08-12T17:32:46.061Z,98473.00
2018-08-12T17:35:16.055Z,98478.00
2018-08-12T17:37:45.436Z,98475.00
2018-08-12T17:40:15.488Z,98483.00
2018-08-12T17:42:44.215Z,98484.00
2018-08-12T17:45:13.941Z,98486.00
2018-08-12T17:47:43.048Z,98483.00
2018-08-12T17:50:13.594Z,98487.00
2018-08-12T17:52:43.399Z,98485.00
2018-08-12T17:55:12.348Z,98488.00
2018-08-12T17:57:41.718Z,98491.00
2018-08-12T18:00:14.708Z,98498.00
2018-08-12T18:02:43.616Z,98505.00
2018-08-12T18:05:12.445Z,98508.00
2018-08-12T18:07:41.811Z,98511.00
2018-08-12T18:10:10.484Z,98517.00
2018-08-12T18:12:40.178Z,98515.00
2018-08-12T18:15:10.372Z,98524.00
2018-08-12T18:17:39.573Z,98527.00
2018-08-12T18:20:08.688Z,98530.00
2018-08-12T18:22:37.592Z,98531.00
2018-08-12T18:25:08.921Z,98538.00
2018-08-12T18:27:37.682Z,98538.00
2018-08-12T18:30:11.136Z,98537.00
2018-08-12T18:32:40.071Z,98540.00
2018-08-12T18:35:09.856Z,98537.00
2018-08-12T18:37:38.972Z,98537.00
2018-08-12T18:40:09.623Z,98539.00
2018-08-12T18:42:38.668Z,98541.00
2018-08-12T18:45:07.583Z,98548.00
2018-08-12T18:47:36.447Z,98547.00
2018-08-12T18:50:07.186Z,98546.00
2018-08-12T18:52:36.344Z,98553.00
2018-08-12T18:55:07.210Z,98558.00
2018-08-12T18:57:35.983Z,98554.00
2018-08-12T19:00:06.591Z,98555.00
2018-08-12T19:02:35.291Z,98555.00
2018-08-12T19:05:05.247Z,98562.00
2018-08-12T19:07:34.060Z,98568.00
2018-08-12T19:10:02.786Z,98570.00
2018-08-12T19:12:31.459Z,98575.00
2018-08-12T19:15:00.227Z,98573.00
2018-08-12T19:17:28.972Z,98572.00
2018-08-12T19:19:58.490Z,98573.00
2018-08-12T19:22:27.180Z,98574.00
2018-08-12T19:24:55.915Z,98575.00
2018-08-12T19:27:24.680Z,98575.00
2018-08-12T19:29:54.193Z,98571.00
2018-08-12T19:32:22.973Z,98573.00
2018-08-12T19:34:52.223Z,98574.00
2018-08-12T19:37:21.031Z,98577.00
2018-08-12T19:39:49.715Z,98580.00
2018-08-12T19:42:18.413Z,98579.00
2018-08-12T19:44:47.228Z,98578.00
2018-08-12T19:47:16.026Z,98582.00
2018-08-12T19:49:44.917Z,98584.00
2018-08-12T19:52:14.331Z,98583.00
2018-08-12T19:54:43.079Z,98583.00
2018-08-12T19:57:12.258Z,98581.00
2018-08-12T19:59:41.048Z,98589.00
2018-08-12T20:02:09.758Z,98592.00
2018-08-12T20:04:38.481Z,98594.00
2018-08-12T20:07:07.436Z,98596.00
2018-08-12T20:09:36.136Z,98593.00
2018-08-12T20:12:05.190Z,98589.00
2018-08-12T20:14:33.941Z,98589.00
2018-08-12T20:17:02.673Z,98592.00
2018-08-12T20:19:31.453Z,98590.00
2018-08-12T20:22:00.298Z,98595.00
2018-08-12T20:24:29.011Z,98594.00
2018-08-12T20:26:58.313Z,98597.00
2018-08-12T20:29:27.010Z,98602.00
2018-08-12T20:32:01.469Z,98601.00
2018-08-12T20:34:30.211Z,98608.00
2018-08-12T20:36:59.798Z,98612.00
2018-08-12T20:39:28.861Z,98619.00
2018-08-12T20:41:57.679Z,98622.00
2018-08-12T20:44:26.640Z,98594.00
2018-08-12T20:46:55.366Z,98617.00
2018-08-12T20:49:24.186Z,98623.00
2018-08-12T20:51:53.026Z,98626.00
2018-08-12T20:54:22.285Z,98628.00
2018-08-12T20:56:51.244Z,98629.00
2018-08-12T20:59:20.263Z,98637.00
2018-08-12T21:01:49.053Z,98631.00
2018-08-12T21:04:17.826Z,98634.00
2018-08-12T21:06:46.647Z,98640.00
2018-08-12T21:09:15.517Z,98633.00
2018-08-12T21:11:45.964Z,98635.00
2018-08-12T21:14:14.706Z,98633.00
2018-08-12T21:16:43.993Z,98633.00
2018-08-12T21:19:12.801Z,98637.00
2018-08-12T21:21:41.602Z,98630.00
2018-08-12T21:24:10.314Z,98627.00
2018-08-12T21:26:39.047Z,98623.00
2018-08-12T21:29:07.866Z,98627.00
2018-08-12T21:31:36.668Z,98628.00
2018-08-12T21:34:06.137Z,98631.00
2018-08-12T21:36:34.990Z,98636.00
2018-08-12T21:39:06.853Z,98639.00
2018-08-12T21:41:35.715Z,98639.00
2018-08-12T21:44:06.068Z,98639.00
2018-08-12T21:46:35.042Z,98632.00
2018-08-12T21:49:04.940Z,98630.00
2018-08-12T21:51:34.374Z,98629.00
2018-08-12T21:54:03.887Z,98631.00
2018-08-12T21:56:33.558Z,98631.00
2018-08-12T21:59:02.504Z,98636.00
2018-08-12T22:01:31.422Z,98635.00
2018-08-12T22:04:00.297Z,98638.00
2018-08-12T22:06:29.063Z,98634.00
2018-08-12T22:08:57.833Z,98638.00
2018-08-12T22:11:26.639Z,98636.00
2018-08-12T22:13:55.348Z,98640.00
2018-08-12T22:16:24.143Z,98642.00
2018-08-12T22:18:52.934Z,98643.00
2018-08-12T22:21:21.657Z,98641.00
2018-08-12T22:23:50.393Z,98636.00
2018-08-12T22:26:19.244Z,98633.00
2018-08-12T22:28:47.901Z,98632.00
2018-08-12T22:31:16.626Z,98628.00
2018-08-12T22:33:45.439Z,98633.00
2018-08-12T22:36:14.304Z,98637.00
2018-08-12T22:38:44.144Z,98635.00
2018-08-12T22:41:13.459Z,98638.00
2018-08-12T22:43:42.196Z,98643.00
2018-08-12T22:46:10.891Z,98642.00
2018-08-12T22:48:39.651Z,98642.00
2018-08-12T22:51:09.168Z,98635.00
2018-08-12T22:53:38.086Z,98639.00
2018-08-12T22:56:06.855Z,98633.00
2018-08-12T22:58:35.828Z,98630.00
2018-08-12T23:01:06.103Z,98627.00
2018-08-12T23:03:34.811Z,98618.00
2018-08-12T23:06:03.676Z,98618.00
2018-08-12T23:08:33.344Z,98612.00
2018-08-12T23:11:02.064Z,98618.00
2018-08-12T23:13:30.849Z,98618.00
2018-08-12T23:16:18.534Z,98611.00
2018-08-12T23:18:47.343Z,98608.00
2018-08-12T23:21:17.100Z,98611.00
2018-08-12T23:23:47.348Z,98617.00
2018-08-12T23:26:17.370Z,98617.00
2018-08-12T23:28:46.246Z,98617.00
2018-08-12T23:31:15.006Z,98612.00
2018-08-12T23:33:43.728Z,98610.00
2018-08-12T23:36:12.758Z,98603.00
2018-08-12T23:38:41.603Z,98604.00
2018-08-12T23:41:11.091Z,98603.00
2018-08-12T23:43:40.804Z,98601.00
2018-08-12T23:46:10.600Z,98595.00
2018-08-12T23:48:39.415Z,98595.00
2018-08-12T23:51:08.498Z,98596.00
2018-08-12T23:53:37.226Z,98600.00
2018-08-12T23:56:06.573Z,98595.00
2018-08-12T23:58:35.274Z,98589.00
